sensor_id;sensor_type;location;lat;lon;timestamp;P1;durP1;ratioP1;P2;durP2;ratioP2
11767;SDS011;5941;57.652;12.514;2024-02-15T00:00:28;794.20;;;748.87;;
11767;SDS011;5941;57.652;12.514;2024-02-15T00:02:54;808.83;;;763.40;;
11767;SDS011;5941;57.652;12.514;2024-02-15T00:05:23;1205.83;;;840.83;;
11767;SDS011;5941;57.652;12.514;2024-02-15T00:07:49;1999.90;;;999.90;;
11767;SDS011;5941;57.652;12.514;2024-02-15T00:10:15;1999.90;;;999.90;;
11767;SDS011;5941;57.652;12.514;2024-02-15T00:12:41;1999.90;;;999.90;;
11767;SDS011;5941;57.652;12.514;2024-02-15T00:15:07;1999.90;;;999.90;;
11767;SDS011;5941;57.652;12.514;2024-02-15T00:17:33;793.80;;;748.47;;
11767;SDS011;5941;57.652;12.514;2024-02-15T00:20:00;801.10;;;755.53;;
11767;SDS011;5941;57.652;12.514;2024-02-15T00:22:28;1215.40;;;849.93;;
11767;SDS011;5941;57.652;12.514;2024-02-15T00:24:54;823.77;;;775.10;;
11767;SDS011;5941;57.652;12.514;2024-02-15T00:27:20;1196.20;;;829.93;;
11767;SDS011;5941;57.652;12.514;2024-02-15T00:29:46;815.47;;;765.77;;
11767;SDS011;5941;57.652;12.514;2024-02-15T00:32:12;829.87;;;780.10;;
11767;SDS011;5941;57.652;12.514;2024-02-15T00:34:38;807.27;;;758.97;;
11767;SDS011;5941;57.652;12.514;2024-02-15T00:37:04;1999.90;;;999.90;;
11767;SDS011;5941;57.652;12.514;2024-02-15T00:39:31;833.17;;;783.30;;
11767;SDS011;5941;57.652;12.514;2024-02-15T00:41:57;811.90;;;765.40;;
11767;SDS011;5941;57.652;12.514;2024-02-15T00:44:25;807.70;;;759.93;;
11767;SDS011;5941;57.652;12.514;2024-02-15T00:46:51;826.40;;;777.23;;
11767;SDS011;5941;57.652;12.514;2024-02-15T00:49:17;835.50;;;786.17;;
11767;SDS011;5941;57.652;12.514;2024-02-15T00:51:45;813.87;;;766.57;;
11767;SDS011;5941;57.652;12.514;2024-02-15T00:54:11;1216.70;;;850.37;;
11767;SDS011;5941;57.652;12.514;2024-02-15T00:56:37;1999.90;;;999.90;;
11767;SDS011;5941;57.652;12.514;2024-02-15T00:59:03;845.47;;;792.67;;
11767;SDS011;5941;57.652;12.514;2024-02-15T01:01:30;832.27;;;784.37;;
11767;SDS011;5941;57.652;12.514;2024-02-15T01:03:56;798.57;;;753.13;;
11767;SDS011;5941;57.652;12.514;2024-02-15T01:06:22;823.30;;;776.30;;
11767;SDS011;5941;57.652;12.514;2024-02-15T01:08:48;842.73;;;792.60;;
11767;SDS011;5941;57.652;12.514;2024-02-15T01:11:14;816.50;;;769.27;;
11767;SDS011;5941;57.652;12.514;2024-02-15T01:13:40;1209.60;;;845.13;;
11767;SDS011;5941;57.652;12.514;2024-02-15T01:16:06;858.67;;;807.23;;
11767;SDS011;5941;57.652;12.514;2024-02-15T01:18:33;807.70;;;762.27;;
11767;SDS011;5941;57.652;12.514;2024-02-15T01:20:59;785.80;;;742.87;;
11767;SDS011;5941;57.652;12.514;2024-02-15T01:23:25;749.63;;;709.57;;
11767;SDS011;5941;57.652;12.514;2024-02-15T01:25:52;742.60;;;703.77;;
11767;SDS011;5941;57.652;12.514;2024-02-15T01:28:18;785.67;;;742.13;;
11767;SDS011;5941;57.652;12.514;2024-02-15T01:30:44;767.47;;;725.23;;
11767;SDS011;5941;57.652;12.514;2024-02-15T01:33:11;801.67;;;757.47;;
11767;SDS011;5941;57.652;12.514;2024-02-15T01:35:37;795.37;;;750.43;;
11767;SDS011;5941;57.652;12.514;2024-02-15T01:38:03;750.33;;;710.37;;
11767;SDS011;5941;57.652;12.514;2024-02-15T01:40:29;777.63;;;735.57;;
11767;SDS011;5941;57.652;12.514;2024-02-15T01:42:55;751.70;;;712.60;;
11767;SDS011;5941;57.652;12.514;2024-02-15T01:45:22;733.43;;;695.43;;
11767;SDS011;5941;57.652;12.514;2024-02-15T01:47:48;749.83;;;709.93;;
11767;SDS011;5941;57.652;12.514;2024-02-15T01:50:14;736.27;;;697.40;;
11767;SDS011;5941;57.652;12.514;2024-02-15T01:52:42;746.27;;;706.37;;
11767;SDS011;5941;57.652;12.514;2024-02-15T01:55:12;722.10;;;685.13;;
11767;SDS011;5941;57.652;12.514;2024-02-15T01:57:39;689.53;;;654.80;;
11767;SDS011;5941;57.652;12.514;2024-02-15T02:00:06;718.57;;;681.13;;
11767;SDS011;5941;57.652;12.514;2024-02-15T02:02:34;777.33;;;734.83;;
11767;SDS011;5941;57.652;12.514;2024-02-15T02:05:00;730.57;;;692.63;;
11767;SDS011;5941;57.652;12.514;2024-02-15T02:07:26;722.10;;;685.13;;
11767;SDS011;5941;57.652;12.514;2024-02-15T02:09:52;731.20;;;692.47;;
11767;SDS011;5941;57.652;12.514;2024-02-15T02:12:18;715.40;;;678.50;;
11767;SDS011;5941;57.652;12.514;2024-02-15T02:14:44;696.43;;;661.50;;
11767;SDS011;5941;57.652;12.514;2024-02-15T02:17:10;716.90;;;679.77;;
11767;SDS011;5941;57.652;12.514;2024-02-15T02:19:37;714.83;;;678.27;;
11767;SDS011;5941;57.652;12.514;2024-02-15T02:22:03;701.83;;;666.17;;
11767;SDS011;5941;57.652;12.514;2024-02-15T02:24:30;707.17;;;671.00;;
11767;SDS011;5941;57.652;12.514;2024-02-15T02:27:02;728.37;;;690.63;;
11767;SDS011;5941;57.652;12.514;2024-02-15T02:29:28;742.73;;;704.20;;
11767;SDS011;5941;57.652;12.514;2024-02-15T02:31:56;768.83;;;727.50;;
11767;SDS011;5941;57.652;12.514;2024-02-15T02:34:22;795.70;;;750.73;;
11767;SDS011;5941;57.652;12.514;2024-02-15T02:36:49;782.43;;;738.80;;
11767;SDS011;5941;57.652;12.514;2024-02-15T02:39:16;805.03;;;759.10;;
11767;SDS011;5941;57.652;12.514;2024-02-15T02:41:42;784.20;;;741.07;;
11767;SDS011;5941;57.652;12.514;2024-02-15T02:44:08;757.83;;;716.93;;
11767;SDS011;5941;57.652;12.514;2024-02-15T02:46:34;789.70;;;743.80;;
11767;SDS011;5941;57.652;12.514;2024-02-15T02:49:00;796.60;;;752.50;;
11767;SDS011;5941;57.652;12.514;2024-02-15T02:51:26;780.23;;;737.33;;
11767;SDS011;5941;57.652;12.514;2024-02-15T02:53:52;761.87;;;721.33;;
11767;SDS011;5941;57.652;12.514;2024-02-15T02:56:18;776.47;;;733.80;;
11767;SDS011;5941;57.652;12.514;2024-02-15T02:58:44;754.33;;;713.10;;
11767;SDS011;5941;57.652;12.514;2024-02-15T03:01:10;770.10;;;728.23;;
11767;SDS011;5941;57.652;12.514;2024-02-15T03:03:36;781.30;;;737.43;;
11767;SDS011;5941;57.652;12.514;2024-02-15T03:06:04;791.37;;;746.83;;
11767;SDS011;5941;57.652;12.514;2024-02-15T03:08:31;798.83;;;754.00;;
11767;SDS011;5941;57.652;12.514;2024-02-15T03:10:57;799.67;;;755.80;;
11767;SDS011;5941;57.652;12.514;2024-02-15T03:13:23;773.30;;;730.47;;
11767;SDS011;5941;57.652;12.514;2024-02-15T03:15:49;790.90;;;746.30;;
11767;SDS011;5941;57.652;12.514;2024-02-15T03:18:16;795.60;;;751.33;;
11767;SDS011;5941;57.652;12.514;2024-02-15T03:20:42;824.27;;;776.87;;
11767;SDS011;5941;57.652;12.514;2024-02-15T03:23:08;812.50;;;766.03;;
11767;SDS011;5941;57.652;12.514;2024-02-15T03:25:34;809.30;;;763.07;;
11767;SDS011;5941;57.652;12.514;2024-02-15T03:28:00;824.47;;;775.97;;
11767;SDS011;5941;57.652;12.514;2024-02-15T03:30:32;807.03;;;760.60;;
11767;SDS011;5941;57.652;12.514;2024-02-15T03:33:01;781.97;;;738.47;;
11767;SDS011;5941;57.652;12.514;2024-02-15T03:35:30;794.90;;;750.33;;
11767;SDS011;5941;57.652;12.514;2024-02-15T03:37:56;804.60;;;758.87;;
11767;SDS011;5941;57.652;12.514;2024-02-15T03:40:23;746.20;;;705.83;;
11767;SDS011;5941;57.652;12.514;2024-02-15T03:42:52;765.73;;;723.63;;
11767;SDS011;5941;57.652;12.514;2024-02-15T03:45:19;747.60;;;708.07;;
11767;SDS011;5941;57.652;12.514;2024-02-15T03:47:45;777.70;;;734.87;;
11767;SDS011;5941;57.652;12.514;2024-02-15T03:50:12;767.20;;;724.77;;
11767;SDS011;5941;57.652;12.514;2024-02-15T03:52:39;744.13;;;704.17;;
11767;SDS011;5941;57.652;12.514;2024-02-15T03:55:06;728.33;;;690.57;;
11767;SDS011;5941;57.652;12.514;2024-02-15T03:57:32;772.17;;;730.87;;
11767;SDS011;5941;57.652;12.514;2024-02-15T03:59:58;757.10;;;716.83;;
11767;SDS011;5941;57.652;12.514;2024-02-15T04:02:25;806.07;;;759.73;;
11767;SDS011;5941;57.652;12.514;2024-02-15T04:04:55;777.23;;;734.60;;
11767;SDS011;5941;57.652;12.514;2024-02-15T04:07:21;757.37;;;716.20;;
11767;SDS011;5941;57.652;12.514;2024-02-15T04:09:50;729.33;;;690.80;;
11767;SDS011;5941;57.652;12.514;2024-02-15T04:12:16;751.83;;;711.00;;
11767;SDS011;5941;57.652;12.514;2024-02-15T04:14:45;757.10;;;716.43;;
11767;SDS011;5941;57.652;12.514;2024-02-15T04:17:11;750.20;;;710.23;;
11767;SDS011;5941;57.652;12.514;2024-02-15T04:19:39;720.07;;;682.73;;
11767;SDS011;5941;57.652;12.514;2024-02-15T04:22:05;720.97;;;683.37;;
11767;SDS011;5941;57.652;12.514;2024-02-15T04:24:35;709.07;;;672.23;;
11767;SDS011;5941;57.652;12.514;2024-02-15T04:27:07;725.97;;;688.20;;
11767;SDS011;5941;57.652;12.514;2024-02-15T04:29:38;754.50;;;713.83;;
11767;SDS011;5941;57.652;12.514;2024-02-15T04:32:09;785.67;;;742.07;;
11767;SDS011;5941;57.652;12.514;2024-02-15T04:34:38;773.60;;;729.60;;
11767;SDS011;5941;57.652;12.514;2024-02-15T04:37:04;791.80;;;748.13;;
11767;SDS011;5941;57.652;12.514;2024-02-15T04:39:34;778.07;;;735.47;;
11767;SDS011;5941;57.652;12.514;2024-02-15T04:42:01;754.77;;;714.33;;
11767;SDS011;5941;57.652;12.514;2024-02-15T04:44:27;794.33;;;749.73;;
11767;SDS011;5941;57.652;12.514;2024-02-15T04:46:53;799.10;;;754.30;;
11767;SDS011;5941;57.652;12.514;2024-02-15T04:49:19;800.83;;;753.43;;
11767;SDS011;5941;57.652;12.514;2024-02-15T04:51:46;793.10;;;748.23;;
11767;SDS011;5941;57.652;12.514;2024-02-15T04:54:15;761.27;;;720.27;;
11767;SDS011;5941;57.652;12.514;2024-02-15T04:56:43;840.07;;;789.53;;
11767;SDS011;5941;57.652;12.514;2024-02-15T04:59:09;830.30;;;780.27;;
11767;SDS011;5941;57.652;12.514;2024-02-15T05:01:40;740.70;;;700.17;;
11767;SDS011;5941;57.652;12.514;2024-02-15T05:04:10;822.10;;;774.40;;
11767;SDS011;5941;57.652;12.514;2024-02-15T05:06:36;819.80;;;773.07;;
11767;SDS011;5941;57.652;12.514;2024-02-15T05:09:03;1999.90;;;999.90;;
11767;SDS011;5941;57.652;12.514;2024-02-15T05:11:32;859.27;;;807.63;;
11767;SDS011;5941;57.652;12.514;2024-02-15T05:14:00;766.83;;;725.00;;
11767;SDS011;5941;57.652;12.514;2024-02-15T05:16:26;776.87;;;732.73;;
11767;SDS011;5941;57.652;12.514;2024-02-15T05:18:52;793.73;;;748.70;;
11767;SDS011;5941;57.652;12.514;2024-02-15T05:21:18;864.13;;;809.10;;
11767;SDS011;5941;57.652;12.514;2024-02-15T05:23:44;834.17;;;784.77;;
11767;SDS011;5941;57.652;12.514;2024-02-15T05:26:11;786.50;;;741.57;;
11767;SDS011;5941;57.652;12.514;2024-02-15T05:28:37;787.13;;;742.90;;
11767;SDS011;5941;57.652;12.514;2024-02-15T05:33:41;809.67;;;762.97;;
11767;SDS011;5941;57.652;12.514;2024-02-15T05:36:12;647.90;;;616.17;;
11767;SDS011;5941;57.652;12.514;2024-02-15T05:38:38;449.00;;;430.33;;
11767;SDS011;5941;57.652;12.514;2024-02-15T05:41:04;409.53;;;392.60;;
11767;SDS011;5941;57.652;12.514;2024-02-15T05:43:32;380.60;;;365.30;;
11767;SDS011;5941;57.652;12.514;2024-02-15T05:45:58;388.20;;;372.50;;
11767;SDS011;5941;57.652;12.514;2024-02-15T05:48:25;396.20;;;380.17;;
11767;SDS011;5941;57.652;12.514;2024-02-15T05:50:51;454.93;;;435.87;;
11767;SDS011;5941;57.652;12.514;2024-02-15T05:53:19;572.97;;;546.33;;
11767;SDS011;5941;57.652;12.514;2024-02-15T05:55:45;711.00;;;673.67;;
11767;SDS011;5941;57.652;12.514;2024-02-15T05:58:14;765.17;;;723.70;;
11767;SDS011;5941;57.652;12.514;2024-02-15T06:00:40;814.57;;;767.70;;
11767;SDS011;5941;57.652;12.514;2024-02-15T06:03:06;1999.90;;;999.90;;
11767;SDS011;5941;57.652;12.514;2024-02-15T06:05:34;1237.37;;;867.90;;
11767;SDS011;5941;57.652;12.514;2024-02-15T06:08:00;787.13;;;742.77;;
11767;SDS011;5941;57.652;12.514;2024-02-15T06:10:26;828.67;;;779.10;;
11767;SDS011;5941;57.652;12.514;2024-02-15T06:12:54;844.20;;;794.10;;
11767;SDS011;5941;57.652;12.514;2024-02-15T06:15:20;788.53;;;743.40;;
11767;SDS011;5941;57.652;12.514;2024-02-15T06:17:46;763.87;;;721.67;;
11767;SDS011;5941;57.652;12.514;2024-02-15T06:20:13;840.40;;;789.90;;
11767;SDS011;5941;57.652;12.514;2024-02-15T06:22:39;786.43;;;741.93;;
11767;SDS011;5941;57.652;12.514;2024-02-15T06:25:05;711.03;;;673.67;;
11767;SDS011;5941;57.652;12.514;2024-02-15T06:27:31;665.07;;;631.80;;
11767;SDS011;5941;57.652;12.514;2024-02-15T06:29:57;716.13;;;679.07;;
11767;SDS011;5941;57.652;12.514;2024-02-15T06:32:42;711.23;;;674.33;;
11767;SDS011;5941;57.652;12.514;2024-02-15T06:35:27;697.53;;;662.83;;
11767;SDS011;5941;57.652;12.514;2024-02-15T06:38:12;704.50;;;668.67;;
11767;SDS011;5941;57.652;12.514;2024-02-15T06:40:56;545.73;;;521.43;;
11767;SDS011;5941;57.652;12.514;2024-02-15T06:43:23;415.83;;;398.63;;
11767;SDS011;5941;57.652;12.514;2024-02-15T06:45:49;389.63;;;373.73;;
11767;SDS011;5941;57.652;12.514;2024-02-15T06:48:16;366.53;;;351.63;;
11767;SDS011;5941;57.652;12.514;2024-02-15T06:50:42;349.67;;;336.00;;
11767;SDS011;5941;57.652;12.514;2024-02-15T06:53:08;340.90;;;327.30;;
11767;SDS011;5941;57.652;12.514;2024-02-15T06:55:37;409.20;;;392.40;;
11767;SDS011;5941;57.652;12.514;2024-02-15T06:58:04;532.10;;;508.07;;
11767;SDS011;5941;57.652;12.514;2024-02-15T07:00:30;617.60;;;586.97;;
11767;SDS011;5941;57.652;12.514;2024-02-15T07:02:57;732.73;;;693.23;;
11767;SDS011;5941;57.652;12.514;2024-02-15T07:05:23;775.43;;;732.00;;
11767;SDS011;5941;57.652;12.514;2024-02-15T07:07:49;844.07;;;793.20;;
11767;SDS011;5941;57.652;12.514;2024-02-15T07:10:15;835.50;;;786.20;;
11767;SDS011;5941;57.652;12.514;2024-02-15T07:12:44;756.53;;;715.33;;
11767;SDS011;5941;57.652;12.514;2024-02-15T07:15:10;768.93;;;724.93;;
11767;SDS011;5941;57.652;12.514;2024-02-15T07:17:37;842.10;;;790.33;;
11767;SDS011;5941;57.652;12.514;2024-02-15T07:20:03;763.13;;;721.07;;
11767;SDS011;5941;57.652;12.514;2024-02-15T07:22:30;847.37;;;796.17;;
11767;SDS011;5941;57.652;12.514;2024-02-15T07:24:56;854.20;;;802.30;;
11767;SDS011;5941;57.652;12.514;2024-02-15T07:27:22;861.17;;;808.77;;
11767;SDS011;5941;57.652;12.514;2024-02-15T07:29:50;850.80;;;799.47;;
11767;SDS011;5941;57.652;12.514;2024-02-15T07:32:16;856.53;;;803.63;;
11767;SDS011;5941;57.652;12.514;2024-02-15T07:34:43;812.10;;;764.87;;
11767;SDS011;5941;57.652;12.514;2024-02-15T07:37:10;716.87;;;679.23;;
11767;SDS011;5941;57.652;12.514;2024-02-15T07:39:37;740.43;;;699.97;;
11767;SDS011;5941;57.652;12.514;2024-02-15T07:42:05;724.00;;;685.23;;
11767;SDS011;5941;57.652;12.514;2024-02-15T07:44:33;697.97;;;662.57;;
11767;SDS011;5941;57.652;12.514;2024-02-15T07:47:01;610.63;;;581.97;;
11767;SDS011;5941;57.652;12.514;2024-02-15T07:49:27;464.30;;;444.87;;
11767;SDS011;5941;57.652;12.514;2024-02-15T07:51:53;416.03;;;399.10;;
11767;SDS011;5941;57.652;12.514;2024-02-15T07:54:19;375.63;;;360.10;;
11767;SDS011;5941;57.652;12.514;2024-02-15T07:56:46;367.13;;;352.43;;
11767;SDS011;5941;57.652;12.514;2024-02-15T07:59:13;379.07;;;363.57;;
11767;SDS011;5941;57.652;12.514;2024-02-15T08:01:41;500.57;;;478.30;;
11767;SDS011;5941;57.652;12.514;2024-02-15T08:04:07;715.63;;;678.03;;
11767;SDS011;5941;57.652;12.514;2024-02-15T08:06:33;781.37;;;736.90;;
11767;SDS011;5941;57.652;12.514;2024-02-15T08:09:02;803.30;;;757.87;;
11767;SDS011;5941;57.652;12.514;2024-02-15T08:11:31;835.47;;;785.57;;
11767;SDS011;5941;57.652;12.514;2024-02-15T08:13:57;1240.10;;;870.27;;
11767;SDS011;5941;57.652;12.514;2024-02-15T08:16:26;834.83;;;783.67;;
11767;SDS011;5941;57.652;12.514;2024-02-15T08:18:52;842.73;;;791.27;;
11767;SDS011;5941;57.652;12.514;2024-02-15T08:21:25;851.43;;;798.37;;
11767;SDS011;5941;57.652;12.514;2024-02-15T08:23:51;1239.13;;;869.47;;
11767;SDS011;5941;57.652;12.514;2024-02-15T08:26:17;866.63;;;812.97;;
11767;SDS011;5941;57.652;12.514;2024-02-15T08:28:43;1999.90;;;999.90;;
11767;SDS011;5941;57.652;12.514;2024-02-15T08:31:09;1999.90;;;999.90;;
11767;SDS011;5941;57.652;12.514;2024-02-15T08:33:36;844.63;;;792.63;;
11767;SDS011;5941;57.652;12.514;2024-02-15T08:36:03;1244.37;;;875.37;;
11767;SDS011;5941;57.652;12.514;2024-02-15T08:38:30;848.07;;;798.00;;
11767;SDS011;5941;57.652;12.514;2024-02-15T08:40:56;848.30;;;797.00;;
11767;SDS011;5941;57.652;12.514;2024-02-15T08:43:22;1999.90;;;999.90;;
11767;SDS011;5941;57.652;12.514;2024-02-15T08:45:48;1999.90;;;999.90;;
11767;SDS011;5941;57.652;12.514;2024-02-15T08:48:15;1999.90;;;999.90;;
11767;SDS011;5941;57.652;12.514;2024-02-15T08:50:41;1999.90;;;999.90;;
11767;SDS011;5941;57.652;12.514;2024-02-15T08:53:10;1999.90;;;999.90;;
11767;SDS011;5941;57.652;12.514;2024-02-15T08:55:36;1999.90;;;999.90;;
11767;SDS011;5941;57.652;12.514;2024-02-15T08:58:02;1999.90;;;999.90;;
11767;SDS011;5941;57.652;12.514;2024-02-15T09:00:29;1999.90;;;999.90;;
11767;SDS011;5941;57.652;12.514;2024-02-15T09:02:55;1999.90;;;999.90;;
11767;SDS011;5941;57.652;12.514;2024-02-15T09:05:22;1999.90;;;999.90;;
11767;SDS011;5941;57.652;12.514;2024-02-15T09:07:48;1999.90;;;999.90;;
11767;SDS011;5941;57.652;12.514;2024-02-15T09:10:15;1999.90;;;999.90;;
11767;SDS011;5941;57.652;12.514;2024-02-15T09:12:47;828.37;;;778.83;;
11767;SDS011;5941;57.652;12.514;2024-02-15T09:15:14;829.77;;;778.10;;
11767;SDS011;5941;57.652;12.514;2024-02-15T09:17:40;1999.90;;;999.90;;
11767;SDS011;5941;57.652;12.514;2024-02-15T09:20:08;1238.70;;;869.93;;
11767;SDS011;5941;57.652;12.514;2024-02-15T09:22:39;846.00;;;794.30;;
11767;SDS011;5941;57.652;12.514;2024-02-15T09:25:05;1232.90;;;863.30;;
11767;SDS011;5941;57.652;12.514;2024-02-15T09:27:31;855.73;;;803.87;;
11767;SDS011;5941;57.652;12.514;2024-02-15T09:29:57;848.50;;;796.90;;
11767;SDS011;5941;57.652;12.514;2024-02-15T09:32:23;839.13;;;789.60;;
11767;SDS011;5941;57.652;12.514;2024-02-15T09:34:49;1236.27;;;867.40;;
11767;SDS011;5941;57.652;12.514;2024-02-15T09:37:15;861.10;;;809.37;;
11767;SDS011;5941;57.652;12.514;2024-02-15T09:39:41;841.97;;;792.50;;
11767;SDS011;5941;57.652;12.514;2024-02-15T09:42:07;826.03;;;777.90;;
11767;SDS011;5941;57.652;12.514;2024-02-15T09:44:34;828.90;;;780.03;;
11767;SDS011;5941;57.652;12.514;2024-02-15T09:47:02;840.70;;;789.60;;
11767;SDS011;5941;57.652;12.514;2024-02-15T09:49:30;1239.03;;;871.07;;
11767;SDS011;5941;57.652;12.514;2024-02-15T09:52:00;844.63;;;794.43;;
11767;SDS011;5941;57.652;12.514;2024-02-15T09:54:26;854.83;;;803.03;;
11767;SDS011;5941;57.652;12.514;2024-02-15T09:56:52;842.47;;;792.97;;
11767;SDS011;5941;57.652;12.514;2024-02-15T09:59:19;860.20;;;807.07;;
11767;SDS011;5941;57.652;12.514;2024-02-15T10:01:45;1232.23;;;862.93;;
11767;SDS011;5941;57.652;12.514;2024-02-15T10:04:13;1225.70;;;857.17;;
11767;SDS011;5941;57.652;12.514;2024-02-15T10:06:41;852.50;;;798.60;;
11767;SDS011;5941;57.652;12.514;2024-02-15T10:09:26;841.53;;;792.37;;
11767;SDS011;5941;57.652;12.514;2024-02-15T10:12:00;809.10;;;763.40;;
11767;SDS011;5941;57.652;12.514;2024-02-15T10:14:26;816.77;;;768.93;;
11767;SDS011;5941;57.652;12.514;2024-02-15T10:16:53;840.13;;;790.53;;
11767;SDS011;5941;57.652;12.514;2024-02-15T10:19:19;815.40;;;769.00;;
11767;SDS011;5941;57.652;12.514;2024-02-15T10:21:50;827.10;;;778.37;;
11767;SDS011;5941;57.652;12.514;2024-02-15T10:24:18;832.33;;;783.13;;
11767;SDS011;5941;57.652;12.514;2024-02-15T10:26:44;798.83;;;753.70;;
11767;SDS011;5941;57.652;12.514;2024-02-15T10:29:14;783.47;;;740.57;;
11767;SDS011;5941;57.652;12.514;2024-02-15T10:31:54;773.60;;;730.97;;
11767;SDS011;5941;57.652;12.514;2024-02-15T10:34:21;779.50;;;736.13;;
11767;SDS011;5941;57.652;12.514;2024-02-15T10:36:48;824.33;;;775.60;;
11767;SDS011;5941;57.652;12.514;2024-02-15T10:39:18;840.17;;;790.47;;
11767;SDS011;5941;57.652;12.514;2024-02-15T10:41:51;809.33;;;763.00;;
11767;SDS011;5941;57.652;12.514;2024-02-15T10:44:18;811.07;;;764.10;;
11767;SDS011;5941;57.652;12.514;2024-02-15T10:46:45;760.73;;;719.03;;
11767;SDS011;5941;57.652;12.514;2024-02-15T10:49:14;805.90;;;759.97;;
11767;SDS011;5941;57.652;12.514;2024-02-15T10:51:43;833.67;;;785.53;;
11767;SDS011;5941;57.652;12.514;2024-02-15T10:54:11;822.13;;;774.77;;
11767;SDS011;5941;57.652;12.514;2024-02-15T10:56:43;830.40;;;782.70;;
11767;SDS011;5941;57.652;12.514;2024-02-15T10:59:17;818.77;;;771.87;;
11767;SDS011;5941;57.652;12.514;2024-02-15T11:01:45;860.83;;;807.77;;
11767;SDS011;5941;57.652;12.514;2024-02-15T11:04:15;854.57;;;804.63;;
11767;SDS011;5941;57.652;12.514;2024-02-15T11:06:47;825.77;;;777.63;;
11767;SDS011;5941;57.652;12.514;2024-02-15T11:09:15;845.23;;;794.30;;
11767;SDS011;5941;57.652;12.514;2024-02-15T11:11:42;830.13;;;782.57;;
11767;SDS011;5941;57.652;12.514;2024-02-15T11:16:50;787.20;;;744.10;;
11767;SDS011;5941;57.652;12.514;2024-02-15T11:19:49;799.87;;;755.00;;
11767;SDS011;5941;57.652;12.514;2024-02-15T11:22:12;784.73;;;741.50;;
11767;SDS011;5941;57.652;12.514;2024-02-15T11:24:50;802.13;;;756.60;;
11767;SDS011;5941;57.652;12.514;2024-02-15T11:27:27;776.83;;;734.43;;
11767;SDS011;5941;57.652;12.514;2024-02-15T11:29:56;783.00;;;739.30;;
11767;SDS011;5941;57.652;12.514;2024-02-15T11:32:34;774.07;;;732.13;;
11767;SDS011;5941;57.652;12.514;2024-02-15T11:35:04;819.13;;;771.13;;
11767;SDS011;5941;57.652;12.514;2024-02-15T11:40:25;800.77;;;755.53;;
11767;SDS011;5941;57.652;12.514;2024-02-15T11:42:53;805.47;;;758.57;;
11767;SDS011;5941;57.652;12.514;2024-02-15T11:45:19;801.50;;;756.67;;
11767;SDS011;5941;57.652;12.514;2024-02-15T11:47:49;792.30;;;748.57;;
11767;SDS011;5941;57.652;12.514;2024-02-15T11:50:22;797.63;;;752.70;;
11767;SDS011;5941;57.652;12.514;2024-02-15T11:52:48;798.47;;;752.80;;
11767;SDS011;5941;57.652;12.514;2024-02-15T11:55:21;816.00;;;769.93;;
11767;SDS011;5941;57.652;12.514;2024-02-15T11:57:57;834.47;;;786.47;;
11767;SDS011;5941;57.652;12.514;2024-02-15T12:00:28;837.90;;;788.43;;
11767;SDS011;5941;57.652;12.514;2024-02-15T12:03:16;820.60;;;774.33;;
11767;SDS011;5941;57.652;12.514;2024-02-15T12:06:01;823.93;;;776.50;;
11767;SDS011;5941;57.652;12.514;2024-02-15T12:08:46;778.90;;;736.03;;
11767;SDS011;5941;57.652;12.514;2024-02-15T12:11:31;780.83;;;737.70;;
11767;SDS011;5941;57.652;12.514;2024-02-15T12:14:16;794.37;;;749.97;;
11767;SDS011;5941;57.652;12.514;2024-02-15T12:17:02;752.03;;;712.27;;
11767;SDS011;5941;57.652;12.514;2024-02-15T12:19:47;756.50;;;715.93;;
11767;SDS011;5941;57.652;12.514;2024-02-15T12:22:19;783.20;;;740.57;;
11767;SDS011;5941;57.652;12.514;2024-02-15T12:24:59;795.70;;;752.13;;
11767;SDS011;5941;57.652;12.514;2024-02-15T12:27:25;756.50;;;716.20;;
11767;SDS011;5941;57.652;12.514;2024-02-15T12:29:58;748.37;;;709.40;;
11767;SDS011;5941;57.652;12.514;2024-02-15T12:32:25;751.43;;;712.50;;
11767;SDS011;5941;57.652;12.514;2024-02-15T12:34:52;772.93;;;732.30;;
11767;SDS011;5941;57.652;12.514;2024-02-15T12:37:21;770.57;;;728.40;;
11767;SDS011;5941;57.652;12.514;2024-02-15T12:39:48;764.70;;;722.93;;
11767;SDS011;5941;57.652;12.514;2024-02-15T12:42:14;788.13;;;744.53;;
11767;SDS011;5941;57.652;12.514;2024-02-15T12:44:45;793.23;;;749.73;;
11767;SDS011;5941;57.652;12.514;2024-02-15T12:47:21;781.40;;;738.77;;
11767;SDS011;5941;57.652;12.514;2024-02-15T12:49:47;822.10;;;774.03;;
11767;SDS011;5941;57.652;12.514;2024-02-15T12:55:10;826.67;;;777.37;;
11767;SDS011;5941;57.652;12.514;2024-02-15T12:57:37;811.43;;;766.20;;
11767;SDS011;5941;57.652;12.514;2024-02-15T13:00:06;845.03;;;795.13;;
11767;SDS011;5941;57.652;12.514;2024-02-15T13:02:38;876.70;;;822.60;;
11767;SDS011;5941;57.652;12.514;2024-02-15T13:05:05;886.17;;;830.57;;
11767;SDS011;5941;57.652;12.514;2024-02-15T13:07:33;843.97;;;792.90;;
11767;SDS011;5941;57.652;12.514;2024-02-15T13:10:00;892.27;;;836.83;;
11767;SDS011;5941;57.652;12.514;2024-02-15T13:12:26;844.07;;;794.60;;
11767;SDS011;5941;57.652;12.514;2024-02-15T13:14:53;850.83;;;800.27;;
11767;SDS011;5941;57.652;12.514;2024-02-15T13:17:19;874.17;;;820.90;;
11767;SDS011;5941;57.652;12.514;2024-02-15T13:19:45;854.67;;;803.97;;
11767;SDS011;5941;57.652;12.514;2024-02-15T13:22:15;826.27;;;779.30;;
11767;SDS011;5941;57.652;12.514;2024-02-15T13:24:42;800.80;;;755.67;;
11767;SDS011;5941;57.652;12.514;2024-02-15T13:27:09;877.20;;;823.30;;
11767;SDS011;5941;57.652;12.514;2024-02-15T13:29:37;866.33;;;813.60;;
11767;SDS011;5941;57.652;12.514;2024-02-15T13:32:03;868.40;;;814.83;;
11767;SDS011;5941;57.652;12.514;2024-02-15T13:34:30;849.70;;;799.93;;
11767;SDS011;5941;57.652;12.514;2024-02-15T13:36:58;770.40;;;728.97;;
11767;SDS011;5941;57.652;12.514;2024-02-15T13:39:26;818.30;;;770.27;;
11767;SDS011;5941;57.652;12.514;2024-02-15T13:41:58;822.07;;;775.07;;
11767;SDS011;5941;57.652;12.514;2024-02-15T13:44:24;821.80;;;774.53;;
11767;SDS011;5941;57.652;12.514;2024-02-15T13:46:49;829.90;;;781.67;;
11767;SDS011;5941;57.652;12.514;2024-02-15T13:49:15;801.23;;;756.33;;
11767;SDS011;5941;57.652;12.514;2024-02-15T13:51:42;791.97;;;749.20;;
11767;SDS011;5941;57.652;12.514;2024-02-15T13:54:09;775.77;;;733.47;;
11767;SDS011;5941;57.652;12.514;2024-02-15T13:56:35;806.97;;;761.43;;
11767;SDS011;5941;57.652;12.514;2024-02-15T13:59:01;764.63;;;723.00;;
11767;SDS011;5941;57.652;12.514;2024-02-15T14:01:27;812.50;;;766.63;;
11767;SDS011;5941;57.652;12.514;2024-02-15T14:03:53;863.60;;;811.07;;
11767;SDS011;5941;57.652;12.514;2024-02-15T14:06:20;914.27;;;856.13;;
11767;SDS011;5941;57.652;12.514;2024-02-15T14:08:46;839.67;;;791.13;;
11767;SDS011;5941;57.652;12.514;2024-02-15T14:11:12;865.77;;;811.97;;